createdAt,value
2017-12-26T00:02:32.406Z,61.20
2017-12-26T00:05:00.680Z,61.20
2017-12-26T00:07:28.944Z,61.00
2017-12-26T00:09:57.248Z,60.90
2017-12-26T00:12:26.301Z,60.90
2017-12-26T00:14:54.580Z,60.80
2017-12-26T00:17:22.841Z,60.80
2017-12-26T00:19:51.414Z,60.80
2017-12-26T00:22:19.717Z,60.90
2017-12-26T00:24:47.982Z,60.70
2017-12-26T00:27:16.299Z,60.60
2017-12-26T00:29:44.547Z,60.60
2017-12-26T00:32:12.859Z,60.40
2017-12-26T00:34:41.117Z,60.40
2017-12-26T00:37:09.709Z,60.40
2017-12-26T00:39:37.987Z,60.20
2017-12-26T00:42:06.234Z,60.20
2017-12-26T00:44:34.525Z,60.30
2017-12-26T00:47:02.778Z,60.00
2017-12-26T00:49:31.075Z,59.90
2017-12-26T00:51:59.328Z,59.80
2017-12-26T00:54:28.216Z,60.00
2017-12-26T00:56:56.477Z,59.80
2017-12-26T00:59:25.511Z,60.60
2017-12-26T01:01:53.795Z,59.90
2017-12-26T01:04:22.064Z,59.80
2017-12-26T01:06:50.341Z,59.70
2017-12-26T01:09:18.598Z,59.80
2017-12-26T01:11:47.260Z,59.80
2017-12-26T01:14:15.528Z,59.80
2017-12-26T01:16:43.813Z,60.40
2017-12-26T01:19:12.085Z,60.60
2017-12-26T01:21:40.458Z,59.80
2017-12-26T01:24:09.524Z,59.80
2017-12-26T01:26:37.809Z,59.80
2017-12-26T01:29:06.421Z,59.60
2017-12-26T01:31:34.696Z,59.70
2017-12-26T01:34:02.977Z,59.70
2017-12-26T01:36:31.266Z,59.60
2017-12-26T01:39:00.313Z,59.70
2017-12-26T01:41:29.032Z,59.70
2017-12-26T01:43:57.300Z,59.80
2017-12-26T01:46:25.579Z,59.70
2017-12-26T01:48:55.390Z,59.60
2017-12-26T01:51:23.670Z,59.60
2017-12-26T01:53:53.579Z,59.60
2017-12-26T01:56:21.860Z,59.60
2017-12-26T01:58:50.473Z,59.70
2017-12-26T02:01:19.509Z,59.50
2017-12-26T02:03:47.775Z,59.50
2017-12-26T02:06:16.057Z,59.60
2017-12-26T02:08:44.338Z,59.80
2017-12-26T02:11:12.952Z,59.70
2017-12-26T02:13:41.226Z,59.50
2017-12-26T02:16:09.490Z,59.60
2017-12-26T02:18:37.783Z,59.50
2017-12-26T02:21:06.065Z,59.60
2017-12-26T02:23:34.358Z,59.70
2017-12-26T02:26:02.610Z,59.40
2017-12-26T02:28:31.173Z,59.30
2017-12-26T02:30:59.439Z,59.20
2017-12-26T02:33:27.745Z,59.20
2017-12-26T02:35:56.052Z,59.00
2017-12-26T02:38:24.320Z,59.10
2017-12-26T02:40:52.619Z,59.00
2017-12-26T02:43:20.871Z,59.00
2017-12-26T02:45:49.428Z,58.90
2017-12-26T02:48:17.688Z,59.00
2017-12-26T02:50:45.957Z,58.80
2017-12-26T02:53:15.002Z,58.80
2017-12-26T02:55:43.261Z,58.80
2017-12-26T02:58:11.559Z,59.00
2017-12-26T03:00:39.825Z,59.00
2017-12-26T03:03:08.537Z,58.60
2017-12-26T03:05:36.794Z,58.40
2017-12-26T03:08:05.073Z,58.20
2017-12-26T03:10:33.361Z,58.20
2017-12-26T03:13:01.625Z,58.20
2017-12-26T03:15:29.909Z,58.50
2017-12-26T03:17:58.198Z,58.30
2017-12-26T03:20:26.783Z,58.20
2017-12-26T03:22:55.952Z,58.10
2017-12-26T03:25:24.212Z,58.30
2017-12-26T03:27:52.508Z,58.40
2017-12-26T03:30:20.767Z,58.40
2017-12-26T03:32:49.050Z,58.40
2017-12-26T03:35:17.324Z,58.40
2017-12-26T03:37:45.874Z,58.40
2017-12-26T03:40:14.237Z,58.50
2017-12-26T03:42:42.477Z,58.20
2017-12-26T03:45:10.779Z,58.20
2017-12-26T03:47:39.046Z,58.30
2017-12-26T03:50:07.335Z,58.20
2017-12-26T03:52:35.686Z,58.50
2017-12-26T03:55:04.379Z,58.60
2017-12-26T03:57:32.642Z,58.30
2017-12-26T04:00:00.901Z,58.10
2017-12-26T04:02:29.951Z,58.10
2017-12-26T04:04:58.237Z,58.20
2017-12-26T04:07:26.542Z,58.40
2017-12-26T04:09:55.620Z,58.30
2017-12-26T04:12:24.195Z,58.30
2017-12-26T04:14:52.472Z,58.20
2017-12-26T04:17:20.751Z,58.30
2017-12-26T04:19:49.061Z,58.30
2017-12-26T04:22:18.090Z,58.40
2017-12-26T04:24:46.379Z,58.40
2017-12-26T04:27:14.664Z,58.50
2017-12-26T04:29:42.934Z,58.30
2017-12-26T04:32:11.248Z,58.60
2017-12-26T04:34:39.521Z,58.60
2017-12-26T04:37:07.825Z,58.70
2017-12-26T04:39:36.120Z,58.60
2017-12-26T04:42:04.824Z,58.30
2017-12-26T04:44:33.105Z,58.10
2017-12-26T04:47:01.363Z,58.30
2017-12-26T04:49:29.658Z,58.20
2017-12-26T04:51:57.915Z,58.10
2017-12-26T04:54:26.227Z,58.10
2017-12-26T04:56:54.508Z,58.10
2017-12-26T04:59:23.111Z,57.70
2017-12-26T05:01:51.378Z,57.80
2017-12-26T05:04:19.653Z,57.80
2017-12-26T05:06:47.949Z,57.80
2017-12-26T05:09:16.208Z,58.10
2017-12-26T05:11:44.498Z,58.20
2017-12-26T05:14:12.765Z,58.10
2017-12-26T05:16:41.340Z,58.10
2017-12-26T05:19:09.616Z,58.20
2017-12-26T05:21:37.908Z,58.30
2017-12-26T05:24:06.213Z,58.20
2017-12-26T05:26:34.471Z,58.30
2017-12-26T05:29:02.762Z,58.60
2017-12-26T05:31:31.045Z,58.40
2017-12-26T05:33:59.632Z,58.50
2017-12-26T05:36:28.656Z,58.00
2017-12-26T05:38:57.713Z,58.20
2017-12-26T05:41:26.030Z,58.20
2017-12-26T05:43:54.303Z,58.20
2017-12-26T05:46:22.613Z,58.10
2017-12-26T05:48:50.888Z,58.10
2017-12-26T05:51:19.443Z,58.20
2017-12-26T05:53:47.694Z,58.20
2017-12-26T05:56:16.744Z,58.20
2017-12-26T05:58:45.033Z,58.20
2017-12-26T06:01:13.308Z,58.40
2017-12-26T06:03:41.597Z,58.40
2017-12-26T06:06:11.891Z,58.40
2017-12-26T06:08:40.594Z,58.30
2017-12-26T06:11:08.861Z,58.20
2017-12-26T06:13:37.920Z,58.70
2017-12-26T06:16:06.221Z,58.60
2017-12-26T06:18:34.503Z,58.50
2017-12-26T06:21:02.799Z,58.40
2017-12-26T06:23:31.073Z,58.10
2017-12-26T06:25:59.380Z,58.00
2017-12-26T06:28:27.662Z,57.90
2017-12-26T06:30:55.995Z,58.10
2017-12-26T06:33:24.562Z,58.30
2017-12-26T06:35:52.825Z,58.30
2017-12-26T06:38:21.101Z,58.30
2017-12-26T06:40:50.150Z,58.30
2017-12-26T06:43:19.184Z,58.40
2017-12-26T06:45:48.246Z,58.50
2017-12-26T06:48:16.510Z,58.40
2017-12-26T06:50:45.204Z,58.30
2017-12-26T06:53:13.481Z,58.30
2017-12-26T06:55:41.751Z,58.40
2017-12-26T06:58:10.069Z,58.30
2017-12-26T07:00:44.535Z,58.90
2017-12-26T07:03:12.824Z,58.30
2017-12-26T07:05:41.098Z,58.40
2017-12-26T07:08:09.701Z,58.50
2017-12-26T07:10:37.963Z,58.50
2017-12-26T07:13:06.244Z,58.60
2017-12-26T07:15:34.552Z,58.80
2017-12-26T07:18:02.841Z,58.80
2017-12-26T07:20:36.757Z,58.90
2017-12-26T07:23:05.788Z,58.80
2017-12-26T07:25:34.082Z,58.80
2017-12-26T07:28:02.342Z,58.80
2017-12-26T07:30:30.632Z,58.80
2017-12-26T07:32:58.936Z,58.80
2017-12-26T07:35:27.534Z,58.80
2017-12-26T07:37:55.821Z,58.80
2017-12-26T07:40:24.134Z,58.90
2017-12-26T07:42:52.439Z,59.00
2017-12-26T07:45:20.700Z,58.90
2017-12-26T07:47:48.985Z,58.90
2017-12-26T07:50:17.894Z,59.00
2017-12-26T07:52:46.603Z,59.00
2017-12-26T07:55:14.896Z,59.00
2017-12-26T07:57:43.925Z,59.00
2017-12-26T08:00:12.238Z,59.00
2017-12-26T08:02:40.503Z,59.00
2017-12-26T08:05:08.790Z,59.00
2017-12-26T08:07:37.045Z,59.00
2017-12-26T08:10:05.786Z,59.00
2017-12-26T08:12:34.062Z,59.00
2017-12-26T08:15:03.114Z,59.10
2017-12-26T08:17:31.424Z,59.00
2017-12-26T08:19:59.729Z,59.00
2017-12-26T08:22:28.067Z,58.90
2017-12-26T08:24:56.405Z,58.90
2017-12-26T08:27:25.188Z,59.00
2017-12-26T08:29:54.227Z,59.00
2017-12-26T08:32:22.499Z,58.80
2017-12-26T08:34:50.810Z,58.70
2017-12-26T08:37:19.105Z,58.60
2017-12-26T08:39:47.395Z,58.70
2017-12-26T08:42:15.683Z,58.60
2017-12-26T08:44:44.255Z,58.60
2017-12-26T08:47:12.552Z,58.70
2017-12-26T08:49:40.828Z,58.60
2017-12-26T08:52:09.124Z,58.50
2017-12-26T08:54:37.402Z,58.60
2017-12-26T08:57:05.725Z,58.50
2017-12-26T08:59:34.133Z,58.60
2017-12-26T09:02:04.366Z,58.40
2017-12-26T09:04:32.653Z,58.60
2017-12-26T09:07:00.893Z,58.60
2017-12-26T09:09:30.154Z,58.50
2017-12-26T09:11:58.426Z,58.40
2017-12-26T09:14:27.141Z,58.20
2017-12-26T09:16:55.438Z,58.30
2017-12-26T09:19:23.719Z,58.20
2017-12-26T09:21:52.619Z,58.20
2017-12-26T09:24:21.662Z,58.10
2017-12-26T09:26:49.963Z,58.20
2017-12-26T09:29:18.236Z,58.10
2017-12-26T09:31:46.819Z,57.90
2017-12-26T09:34:15.198Z,58.10
2017-12-26T09:36:43.591Z,58.00
2017-12-26T09:39:12.591Z,58.10
2017-12-26T09:41:41.662Z,57.90
2017-12-26T09:44:09.948Z,57.90
2017-12-26T09:46:38.217Z,57.90
2017-12-26T09:49:06.782Z,57.80
2017-12-26T09:51:35.044Z,57.90
2017-12-26T09:54:03.331Z,57.90
2017-12-26T09:56:31.650Z,57.80
2017-12-26T09:58:59.941Z,57.80
2017-12-26T10:01:28.402Z,57.40
2017-12-26T10:03:56.810Z,57.80
2017-12-26T10:06:25.496Z,57.90
2017-12-26T10:08:53.818Z,57.70
2017-12-26T10:11:22.084Z,57.40
2017-12-26T10:13:50.396Z,57.40
2017-12-26T10:16:18.652Z,57.20
2017-12-26T10:18:46.970Z,57.10
2017-12-26T10:21:16.044Z,56.90
2017-12-26T10:23:45.402Z,56.50
2017-12-26T10:26:13.683Z,56.50
2017-12-26T10:28:41.986Z,56.40
2017-12-26T10:31:10.293Z,56.60
2017-12-26T10:33:38.570Z,56.40
2017-12-26T10:36:06.890Z,56.20
2017-12-26T10:38:35.186Z,56.30
2017-12-26T10:41:03.792Z,56.20
2017-12-26T10:43:32.606Z,56.20
2017-12-26T10:46:01.687Z,56.10
2017-12-26T10:48:30.000Z,56.10
2017-12-26T10:50:59.096Z,56.10
2017-12-26T10:53:27.465Z,56.10
2017-12-26T10:55:56.036Z,56.10
2017-12-26T10:58:28.430Z,56.50
2017-12-26T11:00:56.735Z,56.20
2017-12-26T11:03:25.026Z,56.20
2017-12-26T11:05:54.197Z,56.00
2017-12-26T11:08:22.483Z,56.00
2017-12-26T11:10:50.801Z,55.90
2017-12-26T11:13:19.116Z,55.90
2017-12-26T11:15:49.087Z,56.10
2017-12-26T11:18:17.348Z,56.50
2017-12-26T11:20:45.647Z,56.00
2017-12-26T11:23:13.974Z,56.00
2017-12-26T11:25:43.016Z,55.90
2017-12-26T11:28:11.733Z,55.80
2017-12-26T11:30:41.013Z,55.90
2017-12-26T11:33:09.303Z,55.90
2017-12-26T11:35:37.614Z,55.90
2017-12-26T11:38:06.689Z,56.00
2017-12-26T11:40:35.258Z,56.00
2017-12-26T11:43:03.539Z,56.00
2017-12-26T11:45:31.813Z,56.40
2017-12-26T11:48:00.118Z,57.30
2017-12-26T11:50:29.163Z,57.10
2017-12-26T11:52:57.899Z,56.40
2017-12-26T11:55:26.177Z,54.40
2017-12-26T11:57:54.495Z,53.90
2017-12-26T12:00:22.798Z,53.20
2017-12-26T12:02:51.081Z,52.50
2017-12-26T12:05:19.706Z,51.70
2017-12-26T12:07:47.974Z,51.30
2017-12-26T12:10:16.266Z,50.70
2017-12-26T12:12:45.336Z,48.50
2017-12-26T12:15:13.650Z,48.50
2017-12-26T12:17:42.711Z,47.00
2017-12-26T12:20:11.011Z,47.00
2017-12-26T12:22:41.182Z,45.70
2017-12-26T12:25:09.492Z,45.70
2017-12-26T12:27:38.206Z,44.90
2017-12-26T12:30:07.307Z,44.10
2017-12-26T12:32:36.228Z,44.10
2017-12-26T12:35:04.539Z,43.80
2017-12-26T12:37:32.844Z,43.20
2017-12-26T12:40:02.242Z,42.60
2017-12-26T12:42:30.514Z,42.60
2017-12-26T12:44:58.800Z,42.40
2017-12-26T12:47:27.110Z,42.10
2017-12-26T12:49:55.391Z,41.60
2017-12-26T12:52:23.716Z,41.20
2017-12-26T12:54:52.001Z,41.60
2017-12-26T12:57:20.282Z,41.40
2017-12-26T12:59:48.599Z,41.00
2017-12-26T13:02:16.878Z,41.10
2017-12-26T13:04:45.221Z,41.20
2017-12-26T13:07:13.630Z,42.00
2017-12-26T13:09:42.276Z,42.60
2017-12-26T13:12:10.555Z,43.30
2017-12-26T13:14:38.831Z,43.80
2017-12-26T13:17:07.131Z,44.30
2017-12-26T13:19:36.171Z,45.10
2017-12-26T13:22:04.480Z,45.00
2017-12-26T13:24:32.761Z,46.50
2017-12-26T13:27:01.077Z,46.80
2017-12-26T13:29:29.374Z,47.00
2017-12-26T13:31:57.680Z,47.30
2017-12-26T13:34:25.977Z,47.60
2017-12-26T13:36:54.238Z,47.90
2017-12-26T13:39:22.814Z,48.40
2017-12-26T13:41:51.112Z,48.40
2017-12-26T13:44:22.343Z,48.40
2017-12-26T13:46:50.651Z,48.60
2017-12-26T13:49:19.677Z,48.80
2017-12-26T13:51:47.981Z,48.80
2017-12-26T13:54:16.257Z,48.80
2017-12-26T13:56:44.902Z,49.50
2017-12-26T13:59:13.969Z,49.60
2017-12-26T14:01:42.256Z,49.00
2017-12-26T14:04:10.542Z,49.00
2017-12-26T14:06:39.577Z,49.20
2017-12-26T14:09:08.141Z,49.20
2017-12-26T14:11:36.424Z,49.20
2017-12-26T14:14:04.694Z,49.30
2017-12-26T14:16:33.014Z,49.40
2017-12-26T14:19:01.300Z,49.30
2017-12-26T14:21:29.900Z,49.30
2017-12-26T14:23:58.178Z,49.20
2017-12-26T14:26:26.456Z,49.30
2017-12-26T14:28:54.774Z,49.40
2017-12-26T14:31:23.038Z,49.60
2017-12-26T14:33:52.407Z,49.70
2017-12-26T14:36:20.694Z,49.60
2017-12-26T14:38:48.973Z,49.80
2017-12-26T14:41:17.257Z,49.90
2017-12-26T14:43:45.570Z,50.00
2017-12-26T14:46:14.212Z,50.10
2017-12-26T14:48:42.479Z,50.20
2017-12-26T14:51:10.749Z,50.10
2017-12-26T14:53:39.048Z,50.20
2017-12-26T14:56:07.330Z,50.30
2017-12-26T14:58:35.902Z,50.30
2017-12-26T15:01:04.186Z,50.40
2017-12-26T15:03:32.475Z,50.50
2017-12-26T15:06:01.533Z,50.40
2017-12-26T15:08:29.804Z,50.30
2017-12-26T15:10:58.097Z,50.40
2017-12-26T15:13:26.374Z,50.40
2017-12-26T15:15:55.053Z,50.50
2017-12-26T15:18:23.324Z,50.60
2017-12-26T15:20:51.597Z,50.70
2017-12-26T15:23:19.887Z,50.70
2017-12-26T15:25:48.155Z,50.80
2017-12-26T15:28:16.449Z,50.90
2017-12-26T15:30:44.725Z,50.90
2017-12-26T15:33:13.327Z,51.00
2017-12-26T15:35:41.707Z,51.20
2017-12-26T15:38:09.961Z,51.10
2017-12-26T15:40:38.264Z,51.20
2017-12-26T15:43:06.532Z,51.30
2017-12-26T15:45:35.121Z,51.30
2017-12-26T15:48:03.401Z,51.50
2017-12-26T15:50:31.683Z,51.60
2017-12-26T15:52:59.957Z,51.70
2017-12-26T15:55:28.229Z,51.80
2017-12-26T15:57:56.812Z,51.90
2017-12-26T16:00:25.073Z,52.60
2017-12-26T16:02:53.333Z,52.20
2017-12-26T16:05:21.632Z,52.60
2017-12-26T16:07:49.900Z,53.20
2017-12-26T16:10:18.188Z,53.50
2017-12-26T16:12:46.458Z,53.90
2017-12-26T16:15:15.175Z,53.10
2017-12-26T16:17:43.423Z,53.20
2017-12-26T16:20:11.690Z,53.20
2017-12-26T16:22:39.989Z,53.40
2017-12-26T16:25:08.248Z,53.50
2017-12-26T16:27:36.553Z,53.60
2017-12-26T16:30:04.809Z,53.70
2017-12-26T16:32:33.525Z,53.90
2017-12-26T16:35:01.799Z,53.90
2017-12-26T16:37:31.684Z,54.10
2017-12-26T16:39:59.978Z,54.00
2017-12-26T16:42:28.247Z,54.10
2017-12-26T16:44:56.550Z,54.10
2017-12-26T16:47:24.796Z,54.30
2017-12-26T16:49:53.401Z,54.60
2017-12-26T16:52:21.673Z,54.90
2017-12-26T16:54:49.945Z,55.40
2017-12-26T16:57:18.230Z,55.60
2017-12-26T16:59:52.489Z,55.70
2017-12-26T17:02:21.547Z,57.20
2017-12-26T17:04:49.814Z,57.20
2017-12-26T17:07:18.522Z,57.70
2017-12-26T17:09:46.821Z,58.00
2017-12-26T17:12:15.059Z,58.30
2017-12-26T17:14:43.338Z,58.40
2017-12-26T17:17:11.609Z,58.70
2017-12-26T17:19:39.930Z,58.90
2017-12-26T17:22:08.957Z,59.50
2017-12-26T17:24:37.506Z,60.00
2017-12-26T17:27:06.534Z,59.80
2017-12-26T17:29:34.801Z,59.80
2017-12-26T17:32:03.144Z,59.80
2017-12-26T17:34:31.425Z,60.00
2017-12-26T17:36:59.725Z,60.10
2017-12-26T17:39:27.971Z,60.20
2017-12-26T17:41:56.528Z,60.30
2017-12-26T17:44:24.793Z,60.60
2017-12-26T17:46:53.050Z,60.50
2017-12-26T17:49:21.352Z,60.50
2017-12-26T17:51:49.626Z,60.50
2017-12-26T17:54:18.346Z,60.60
2017-12-26T17:56:46.668Z,60.70
2017-12-26T17:59:14.937Z,60.80
2017-12-26T18:01:43.989Z,60.90
2017-12-26T18:04:12.250Z,60.90
2017-12-26T18:06:40.552Z,60.90
2017-12-26T18:09:08.803Z,61.00
2017-12-26T18:11:37.362Z,61.10
2017-12-26T18:14:05.633Z,61.10
2017-12-26T18:16:33.897Z,61.20
2017-12-26T18:19:02.932Z,60.90
2017-12-26T18:21:31.190Z,60.80
2017-12-26T18:23:59.510Z,60.70
2017-12-26T18:26:27.769Z,60.70
2017-12-26T18:31:23.813Z,60.50
2017-12-26T18:33:52.073Z,60.40
2017-12-26T18:36:20.517Z,60.30
2017-12-26T18:38:48.803Z,60.20
2017-12-26T18:41:17.448Z,60.10
2017-12-26T18:43:45.776Z,60.70
2017-12-26T18:46:14.816Z,60.40
2017-12-26T18:48:43.117Z,60.30
2017-12-26T18:51:11.373Z,60.30
2017-12-26T18:53:39.681Z,60.50
2017-12-26T18:56:07.946Z,60.50
2017-12-26T18:58:36.507Z,60.60
2017-12-26T19:01:04.803Z,60.70
2017-12-26T19:03:33.056Z,60.70
2017-12-26T19:06:02.237Z,60.80
2017-12-26T19:08:31.263Z,61.00
2017-12-26T19:10:59.582Z,61.00
2017-12-26T19:13:28.593Z,61.00
2017-12-26T19:15:57.208Z,61.10
2017-12-26T19:18:25.487Z,61.10
2017-12-26T19:20:53.803Z,61.20
2017-12-26T19:23:22.143Z,61.10
2017-12-26T19:25:50.416Z,61.10
2017-12-26T19:28:18.715Z,61.10
2017-12-26T19:30:47.004Z,61.00
2017-12-26T19:33:15.698Z,61.10
2017-12-26T19:35:43.969Z,61.20
2017-12-26T19:38:12.243Z,61.30
2017-12-26T19:40:40.561Z,61.30
2017-12-26T19:43:09.610Z,61.30
2017-12-26T19:45:37.915Z,61.90
2017-12-26T19:48:06.165Z,61.20
2017-12-26T19:50:34.714Z,61.30
2017-12-26T19:53:02.961Z,61.30
2017-12-26T19:55:32.013Z,61.20
2017-12-26T19:58:00.302Z,61.20
2017-12-26T20:00:28.571Z,61.30
2017-12-26T20:02:56.871Z,61.10
2017-12-26T20:05:25.128Z,61.10
2017-12-26T20:07:53.828Z,61.10
2017-12-26T20:10:22.082Z,61.10
2017-12-26T20:12:50.337Z,61.10
2017-12-26T20:15:18.625Z,61.10
2017-12-26T20:17:46.931Z,61.10
2017-12-26T20:20:15.225Z,61.10
2017-12-26T20:22:43.496Z,61.10
2017-12-26T20:25:12.180Z,61.20
2017-12-26T20:27:40.478Z,61.00
2017-12-26T20:30:08.726Z,60.90
2017-12-26T20:32:37.044Z,60.90
2017-12-26T20:35:05.288Z,60.80
2017-12-26T20:37:33.570Z,60.80
2017-12-26T20:40:01.853Z,60.60
2017-12-26T20:42:30.118Z,60.60
2017-12-26T20:44:58.424Z,60.50
2017-12-26T20:47:26.675Z,60.40
2017-12-26T20:49:54.956Z,60.40
2017-12-26T20:52:23.225Z,60.30
2017-12-26T20:54:51.812Z,60.20
2017-12-26T20:57:20.083Z,60.30
2017-12-26T20:59:48.322Z,60.20
2017-12-26T21:02:16.676Z,60.10
2017-12-26T21:04:45.725Z,60.30
2017-12-26T21:07:14.021Z,60.10
2017-12-26T21:09:42.272Z,60.10
2017-12-26T21:12:10.835Z,60.00
2017-12-26T21:14:39.087Z,60.00
2017-12-26T21:17:08.301Z,60.00
2017-12-26T21:19:36.644Z,60.00
2017-12-26T21:22:04.909Z,60.60
2017-12-26T21:24:33.211Z,59.90
2017-12-26T21:27:01.513Z,59.90
2017-12-26T21:29:30.832Z,59.80
2017-12-26T21:31:59.145Z,59.80
2017-12-26T21:34:27.438Z,59.80
2017-12-26T21:36:55.777Z,59.80
2017-12-26T21:39:24.030Z,59.80
2017-12-26T21:41:53.381Z,59.70
2017-12-26T21:44:21.648Z,59.70
2017-12-26T21:46:49.937Z,60.00
2017-12-26T21:49:18.238Z,59.70
2017-12-26T21:51:46.508Z,59.70
2017-12-26T21:54:14.825Z,59.80
2017-12-26T21:56:43.107Z,59.80
2017-12-26T21:59:12.422Z,59.80
2017-12-26T22:01:40.724Z,59.70
2017-12-26T22:04:09.045Z,59.70
2017-12-26T22:06:37.347Z,59.60
2017-12-26T22:09:06.398Z,59.60
2017-12-26T22:11:34.990Z,59.60
2017-12-26T22:14:03.269Z,59.60
2017-12-26T22:16:32.273Z,59.60
2017-12-26T22:19:00.583Z,59.60
2017-12-26T22:21:28.993Z,59.60
2017-12-26T22:23:57.289Z,59.60
2017-12-26T22:26:25.650Z,59.60
2017-12-26T22:28:54.218Z,59.70
2017-12-26T22:31:22.595Z,59.70
2017-12-26T22:33:52.002Z,59.70
2017-12-26T22:36:20.285Z,59.80
2017-12-26T22:38:48.556Z,59.80
2017-12-26T22:41:16.835Z,59.80
2017-12-26T22:43:45.108Z,60.60
2017-12-26T22:46:13.669Z,59.90
2017-12-26T22:48:42.718Z,59.80
2017-12-26T22:51:10.991Z,59.80
2017-12-26T22:53:40.054Z,60.00
2017-12-26T22:56:08.337Z,60.00
2017-12-26T22:58:36.629Z,60.00
2017-12-26T23:01:04.881Z,60.10
2017-12-26T23:03:33.149Z,60.00
2017-12-26T23:06:01.447Z,60.00
2017-12-26T23:08:29.711Z,60.00
2017-12-26T23:10:58.008Z,59.90
2017-12-26T23:13:26.278Z,59.90
2017-12-26T23:16:00.229Z,59.90
2017-12-26T23:18:28.496Z,59.90
2017-12-26T23:20:59.650Z,59.90
2017-12-26T23:23:33.705Z,59.90
2017-12-26T23:26:08.343Z,59.90
2017-12-26T23:28:42.207Z,59.90
2017-12-26T23:31:16.281Z,60.60
2017-12-26T23:33:50.140Z,59.90
2017-12-26T23:36:24.162Z,59.90
2017-12-26T23:38:59.455Z,60.00
2017-12-26T23:41:33.506Z,59.90
2017-12-26T23:44:07.359Z,59.90
2017-12-26T23:46:41.306Z,60.70
2017-12-26T23:49:15.218Z,59.90
2017-12-26T23:51:49.321Z,60.00
